This is the latest recevied weather packets stored in our database for station/object KE5AKC. If no packets are shown the sender has not sent any weather packets the latest 10 day(s).
| Time | Temp. | Humidity | Pressure | Rain* | Wind** | Luminosity | Snow |
|---|---|---|---|---|---|---|---|
| 1777655161 | 16.11° C | 97% | 1010.3 hPa | 0.25 mm | - | 157 W/m² | - |
| 1777654858 | 16.11° C | 97% | 1011.3 hPa | 0 mm | - | 85 W/m² | - |
| 1777654555 | 16.11° C | 97% | 1011.7 hPa | 5.33 mm | - | 49 W/m² | - |
| 1777654253 | 16.11° C | 97% | 1011.7 hPa | 5.08 mm | - | 50 W/m² | - |
| 1777653950 | 16.11° C | 96% | 1011.3 hPa | 4.83 mm | - | 58 W/m² | - |
| 1777653647 | 16.11° C | 96% | 1011 hPa | 4.57 mm | - | 41 W/m² | - |
| 1777653344 | 16.11° C | 96% | 1012 hPa | 3.81 mm | - | 23 W/m² | - |
| 1777653041 | 16.11° C | 96% | 1012.4 hPa | 2.54 mm | - | 16 W/m² | - |
| 1777652737 | 16.11° C | 96% | 1012.4 hPa | 2.03 mm | - | 12 W/m² | - |
| 1777652434 | 16.11° C | 96% | 1011.7 hPa | 1.52 mm | - | 26 W/m² | - |
| 1777652131 | 16.11° C | 96% | 1011.7 hPa | 1.27 mm | - | 23 W/m² | - |
| 1777651827 | 16.11° C | 95% | 1011.7 hPa | 0.51 mm | - | 27 W/m² | - |
| 1777651525 | 16.67° C | 95% | 1011.3 hPa | 0 mm | - | 45 W/m² | - |
| 1777651222 | 16.67° C | 95% | 1012 hPa | 0 mm | - | 41 W/m² | - |
| 1777650918 | 16.67° C | 95% | 1011.7 hPa | 0 mm | - | 54 W/m² | - |
| 1777650615 | 16.67° C | 95% | 1012 hPa | 0 mm | - | 45 W/m² | - |
| 1777650313 | 16.67° C | 95% | 1011.7 hPa | 0 mm | - | 53 W/m² | - |
| 1777650009 | 16.11° C | 96% | 1011.7 hPa | 0 mm | - | 109 W/m² | - |
| 1777649707 | 16.67° C | 95% | 1011.7 hPa | 0 mm | - | 93 W/m² | - |
| 1777649402 | 16.11° C | 96% | 1011.7 hPa | 0 mm | - | 81 W/m² | - |
| 1777649100 | 16.11° C | 96% | 1011.7 hPa | 0 mm | - | 83 W/m² | - |
| 1777648797 | 16.67° C | 96% | 1011.7 hPa | 0 mm | - | 80 W/m² | - |
| 1777648494 | 16.11° C | 96% | 1011.7 hPa | 0 mm | - | 78 W/m² | - |
| 1777648191 | 16.67° C | 96% | 1012 hPa | 0 mm | - | 64 W/m² | - |
| 1777647886 | 16.11° C | 96% | 1012.4 hPa | 0 mm | - | 96 W/m² | - |
* Rain latest hour (hover to see other rain measurements)
** Current wind speed in m/s (hover to see current wind gust speed)